• Join FlightAware (Why Join?)
  • Login
  • US Flag 
03:08AM EDT


 

Airport Tracker/Info


-or-


 

Live Flight TrackerFlight Track Log ✈ PDT4155 ✈ 16-Dec-2013 ✈ KBGM - KPHL

Flight Track Log - Related Links

Times and Time Zones

All times are in EST time to prevent confusion due to time zone crossing. See the PDT4155 flight status page for this flight to view local times or setup timezone preferences in your user account.

Time Position Orientation Groundspeed Altitude Reporting Facility
EST Latitude Longitude Course Direction KTS MPH feet Rate Location/Type
07:30AM 41.9654 -75.9002 180° South  Level Estimated
07:31AM 41.9014 -75.8794 154° Southeast  Level Estimated
07:32AM 41.8374 -75.8586 160° South  Level Estimated
07:33AM 41.7734 -75.8379 159° South  Level Estimated
07:34AM 41.7080 -75.8288 174° South  Level FlightAware Approximate
07:35AM 41.6440 -75.8078 153° Southeast  Level Estimated
07:36AM 41.5801 -75.7868 161° South  Level Estimated
07:37AM 41.5162 -75.7656 166° South  Level FlightAware Approximate
07:38AM 41.4523 -75.7445 166° South  Level FlightAware Approximate
07:39AM 41.3884 -75.7236 162° South  Level Estimated
07:40AM 41.3255 -75.6981 163° South  Level FlightAware Approximate
07:41AM 41.2625 -75.6725 163° South  Level FlightAware Approximate
07:42AM 41.1995 -75.6470 163° South  Level FlightAware Approximate
07:43AM 41.1365 -75.6216 163° South  Level FlightAware Approximate
07:44AM 41.0724 -75.6020 163° South  Level Estimated
07:45AM 41.0098 -75.5751 162° South  Level FlightAware Approximate
07:46AM 40.9472 -75.5483 162° South  Level FlightAware Approximate
07:47AM 40.8845 -75.5215 162° South  Level FlightAware Approximate
07:48AM 40.8201 -75.5034 190° South  Level Estimated
07:49AM 40.7543 -75.5027 180° South  Level FlightAware Approximate
07:50AM 40.6885 -75.5020 180° South  Level FlightAware Approximate
07:51AM 40.6246 -75.4813 187° South  Level Estimated
07:52AM 40.5592 -75.4916 187° South  Level FlightAware Approximate
07:53AM 40.4959 -75.4683 190° South  Level Estimated
07:53AM 40.7000 -75.4500 143° Southeast 262 302 7,500  Level Philadelphia TRACON
07:54AM 40.4321 -75.4895 194° South  Level FlightAware Approximate
07:54AM 40.6167 -75.4833 197° South 251 289 6,500  Level Philadelphia TRACON
07:55AM 40.3698 -75.4616 180° South  Level Estimated
07:55AM 40.5333 -75.5000 189° South 258 297 5,800  Level Philadelphia TRACON
07:56AM 40.3074 -75.4338 143° Southeast  Level Estimated
07:57AM 40.2451 -75.4060 143° Southeast  Level Estimated
07:57AM 40.4667 -75.5000 180° South 245 282 5,100  Level Philadelphia TRACON
07:57AM 40.4333 -75.4500 131° Southeast 228 262 5,100 -120 Level Philadelphia TRACON
07:58AM 40.1828 -75.3783 143° Southeast  Level Estimated
07:58AM 40.3833 -75.4167 153° Southeast 234 269 5,000  Level Philadelphia TRACON
07:59AM 40.3167 -75.3500 143° Southeast 244 281 5,000 -60 Level Philadelphia TRACON
08:00AM 40.2667 -75.3167 153° Southeast 242 278 4,900 -420 Descending Philadelphia TRACON
08:01AM 40.2000 -75.2667 150° Southeast 249 287 4,200 -480 Descending Philadelphia TRACON
08:02AM 40.1333 -75.2333 159° South 252 290 4,000 -120 Descending Philadelphia TRACON
08:03AM 40.0667 -75.2000 159° South 239 275 4,000  Level Philadelphia TRACON
08:04AM 40.0000 -75.1667 159° South 240 276 4,000  Level Philadelphia TRACON
08:05AM 39.9500 -75.1500 166° South 222 255 4,000  Level Philadelphia TRACON
08:06AM 39.9000 -75.1333 166° South 216 249 4,000  Level Philadelphia TRACON
08:07AM 39.8500 -75.1000 153° Southeast 211 243 4,000  Level Philadelphia TRACON
08:08AM 39.7833 -75.0833 169° South 226 260 4,000  Level Philadelphia TRACON
08:09AM 39.7333 -75.0500 153° Southeast 234 269 4,000 -600 Level Philadelphia TRACON
08:10AM 39.6833 -75.0667 194° South 196 226 2,900 -840 Descending Philadelphia TRACON
08:11AM 39.6833 -75.1333 270° West 175 201 2,200 -600 Descending Philadelphia TRACON
08:12AM 39.7333 -75.1500 346° North 173 199 1,700 -300 Descending Philadelphia TRACON
08:13AM 39.7667 -75.1833 322° Northwest 158 182 1,600 -240 Descending Philadelphia TRACON
08:14AM 39.8167 -75.2000 346° North 141 162 1,300 -480 Descending Philadelphia TRACON
08:15AM 39.8333 -75.2167 322° Northwest 98 113 700 -600 Descending Philadelphia TRACON
08:16AM 39.8667 -75.2333 339° North 95 109 100 -600 Descending Philadelphia TRACON